createdAt,value
2023-03-23T16:00:22.842Z,15.40
2023-03-23T16:03:17.282Z,15.23
2023-03-23T16:06:03.914Z,15.24
2023-03-23T16:08:54.835Z,15.29
2023-03-23T16:11:42.261Z,15.25
2023-03-23T16:14:28.581Z,15.18
2023-03-23T16:17:20.545Z,15.10
2023-03-23T16:20:19.455Z,15.12
2023-03-23T16:23:05.709Z,14.91
2023-03-23T16:25:52.005Z,15.17
2023-03-23T16:28:39.135Z,14.98
2023-03-23T16:31:25.529Z,14.98
2023-03-23T16:34:11.851Z,14.93
2023-03-23T16:36:58.220Z,15.03
2023-03-23T16:39:44.764Z,15.00
2023-03-23T16:42:31.282Z,15.26
2023-03-23T16:45:18.028Z,15.07
2023-03-23T16:48:05.462Z,15.02
2023-03-23T16:50:52.617Z,14.89
2023-03-23T16:53:38.893Z,14.96
2023-03-23T16:56:25.311Z,14.98
2023-03-23T17:03:44.083Z,14.56
2023-03-23T17:06:31.079Z,14.44
2023-03-23T17:09:17.625Z,14.37
2023-03-23T17:12:04.576Z,14.33
2023-03-23T17:14:50.815Z,14.30
2023-03-23T17:17:37.569Z,14.15
2023-03-23T17:20:24.408Z,14.11
2023-03-23T17:23:11.239Z,13.90
2023-03-23T17:25:57.892Z,13.88
2023-03-23T17:28:44.221Z,13.80
2023-03-23T17:31:30.528Z,13.66
2023-03-23T17:34:18.719Z,13.69
2023-03-23T17:37:06.372Z,13.57
2023-03-23T17:39:52.609Z,13.33
2023-03-23T17:42:39.791Z,13.42
2023-03-23T17:45:26.676Z,13.29
2023-03-23T17:48:13.175Z,13.28
2023-03-23T17:51:02.256Z,13.22
2023-03-23T17:53:49.084Z,13.22
2023-03-23T17:56:35.395Z,13.17
2023-03-23T17:59:23.346Z,13.15
2023-03-23T18:02:11.364Z,13.11
2023-03-23T18:04:59.568Z,13.38
2023-03-23T18:07:46.154Z,13.67
2023-03-23T18:10:35.528Z,13.36
2023-03-23T18:13:21.903Z,13.31
2023-03-23T18:16:08.682Z,13.31
2023-03-23T18:18:56.319Z,13.17
2023-03-23T18:21:45.305Z,13.08
2023-03-23T18:24:32.101Z,13.02
2023-03-23T18:27:18.959Z,13.04
2023-03-23T18:30:06.217Z,13.10
2023-03-23T18:32:52.930Z,13.15
2023-03-23T18:35:39.585Z,13.27
2023-03-23T18:38:27.360Z,13.30
2023-03-23T18:41:14.122Z,13.44
2023-03-23T18:44:00.395Z,13.78
2023-03-23T18:46:46.951Z,13.97
2023-03-23T18:49:33.794Z,14.05
2023-03-23T18:52:20.710Z,14.23
2023-03-23T18:55:07.437Z,14.25
2023-03-23T18:57:53.809Z,14.25
2023-03-23T19:00:41.033Z,14.46
2023-03-23T19:03:27.644Z,14.57
2023-03-23T19:06:18.795Z,14.67
2023-03-23T19:09:05.073Z,14.72
2023-03-23T19:11:51.560Z,14.70
2023-03-23T19:14:42.449Z,14.82
2023-03-23T19:17:28.730Z,14.78
2023-03-23T19:20:23.597Z,14.80
2023-03-23T19:23:22.998Z,14.86
2023-03-23T19:26:21.725Z,14.87
2023-03-23T19:32:01.324Z,14.94
2023-03-23T19:34:51.072Z,14.97
2023-03-23T19:37:37.860Z,14.95
2023-03-23T19:40:39.150Z,14.85
2023-03-23T19:43:27.838Z,14.94
2023-03-23T19:46:14.643Z,14.90
2023-03-23T19:49:01.391Z,14.85
2023-03-23T19:51:47.893Z,14.77
2023-03-23T19:54:34.902Z,14.71
2023-03-23T19:57:23.067Z,14.76
2023-03-23T20:00:13.503Z,14.63
2023-03-23T20:03:00.213Z,14.60
2023-03-23T20:05:49.253Z,14.54
2023-03-23T20:08:36.354Z,14.53
2023-03-23T20:11:24.061Z,14.46
2023-03-23T20:14:11.098Z,14.34
2023-03-23T20:16:57.473Z,14.17
2023-03-23T20:19:44.678Z,14.15
2023-03-23T20:22:30.992Z,14.25
2023-03-23T20:25:17.574Z,14.20
2023-03-23T20:28:04.528Z,14.04
2023-03-23T20:31:20.959Z,14.04
2023-03-23T20:34:13.137Z,13.92
2023-03-23T20:37:01.847Z,13.94
2023-03-23T20:39:49.052Z,13.93
2023-03-23T20:42:39.132Z,13.88
2023-03-23T20:45:25.364Z,13.84
2023-03-23T20:48:12.508Z,13.90
2023-03-23T20:51:00.457Z,13.35
2023-03-23T20:53:48.543Z,13.91
2023-03-23T20:56:35.052Z,13.83
2023-03-23T20:59:21.858Z,13.62
2023-03-23T21:02:14.785Z,13.69
2023-03-23T21:05:04.958Z,13.72
2023-03-23T21:07:51.410Z,13.61
2023-03-23T21:10:38.746Z,13.54
2023-03-23T21:13:25.688Z,13.57
2023-03-23T21:16:12.271Z,13.57
2023-03-23T21:18:58.846Z,13.40
2023-03-23T21:21:56.766Z,13.41
2023-03-23T21:24:43.610Z,13.38
2023-03-23T21:27:30.678Z,13.24
2023-03-23T21:30:17.990Z,13.17
2023-03-23T21:37:38.012Z,13.24
2023-03-23T21:40:24.749Z,13.26
2023-03-23T21:43:16.478Z,13.19
2023-03-23T21:46:05.471Z,13.36
2023-03-23T21:48:52.624Z,13.36
2023-03-23T21:51:39.007Z,13.37
2023-03-23T21:54:30.369Z,13.39
2023-03-23T21:57:16.908Z,13.34
2023-03-23T22:00:07.134Z,13.20
2023-03-23T22:02:53.469Z,13.22
2023-03-23T22:05:40.563Z,13.17
2023-03-23T22:08:29.510Z,13.14
2023-03-23T22:11:25.341Z,13.09
2023-03-23T22:14:12.096Z,12.91
2023-03-23T22:16:58.445Z,12.91
2023-03-23T22:19:45.215Z,12.78
2023-03-23T22:22:32.185Z,12.67
2023-03-23T22:25:19.775Z,12.58
2023-03-23T22:28:06.513Z,12.52
2023-03-23T22:31:02.657Z,12.70
2023-03-23T22:33:54.242Z,12.65
2023-03-23T22:36:41.256Z,12.58
2023-03-23T22:39:28.537Z,12.60
2023-03-23T22:42:15.054Z,12.72
2023-03-23T22:45:01.710Z,12.65
2023-03-23T22:47:48.036Z,12.78
2023-03-23T22:50:34.819Z,12.83
2023-03-23T22:53:21.994Z,12.89
2023-03-23T22:56:09.204Z,12.85
2023-03-23T22:58:56.390Z,12.93
2023-03-23T23:01:42.663Z,12.85
2023-03-23T23:04:29.236Z,12.83
2023-03-23T23:07:16.129Z,12.71
2023-03-23T23:10:03.533Z,12.90
2023-03-23T23:12:50.185Z,12.76
2023-03-23T23:15:37.809Z,12.76
2023-03-23T23:18:25.955Z,12.85
2023-03-23T23:21:16.395Z,12.95
2023-03-23T23:24:03.811Z,12.95
2023-03-23T23:26:50.226Z,12.88
2023-03-23T23:29:37.072Z,12.95
2023-03-23T23:32:24.599Z,12.93
2023-03-23T23:35:13.000Z,13.01
2023-03-23T23:37:59.260Z,13.05
2023-03-23T23:40:47.228Z,12.96
2023-03-23T23:43:34.129Z,12.92
2023-03-23T23:46:20.898Z,12.93
2023-03-23T23:49:07.503Z,12.92
2023-03-23T23:51:55.029Z,12.81
2023-03-23T23:54:42.505Z,12.88
2023-03-23T23:57:29.192Z,12.71
